Time;durP1;ratioP1;P1;durP2;ratioP2;P2;SDS_P1;SDS_P2;PMS_P1;PMS_P2;Temp;Humidity;BMP_temperature;BMP_pressure;BME280_temperature;BME280_humidity;BME280_pressure;Samples;Min_cycle;Max_cycle;Signal;HPM_P1;HPM_P2
2021/12/03 06:13:50;;;;;;;2.65;1.80;;;;;;;-4.01;74.76;99425.63;5004208;28;106100;-77
2021/12/03 06:16:15;;;;;;;4.87;2.47;;;;;;;-3.95;75.10;99435.66;5006223;28;105854;-68
2021/12/03 06:18:41;;;;;;;5.10;2.00;;;;;;;-3.88;75.42;99433.50;5005504;28;106049;-67
2021/12/03 06:21:10;;;;;;;5.05;2.78;;;;;;;-3.80;75.54;99449.47;5005135;28;106056;-64
2021/12/03 06:23:35;;;;;;;6.22;3.00;;;;;;;-3.68;75.98;99440.06;5004941;28;106042;-72
2021/12/03 06:26:01;;;;;;;9.00;3.70;;;;;;;-3.61;75.81;99446.53;5006197;28;106012;-67
2021/12/03 06:28:29;;;;;;;5.65;2.50;;;;;;;-3.55;75.98;99453.97;5005432;28;106133;-72
2021/12/03 06:30:54;;;;;;;4.70;3.10;;;;;;;-3.49;75.71;99453.56;5004476;28;106801;-70
2021/12/03 06:33:20;;;;;;;8.98;3.00;;;;;;;-3.42;76.29;99454.00;5004463;28;105986;-71
2021/12/03 06:35:47;;;;;;;6.35;2.55;;;;;;;-3.36;76.03;99463.19;5005562;28;105932;-72
2021/12/03 06:38:13;;;;;;;6.00;2.70;;;;;;;-3.33;76.00;99463.00;5004915;28;106269;-68
2021/12/03 06:40:38;;;;;;;4.97;3.10;;;;;;;-3.31;75.82;99471.53;5004595;28;105891;-69
2021/12/03 06:43:03;;;;;;;8.35;3.92;;;;;;;-3.28;76.02;99477.41;5004648;28;105935;-71
2021/12/03 06:45:29;;;;;;;4.97;2.83;;;;;;;-3.28;76.17;99479.16;5006023;28;105904;-69
2021/12/03 06:47:55;;;;;;;5.95;2.50;;;;;;;-3.22;75.67;99483.16;5004900;28;105787;-71
2021/12/03 06:50:23;;;;;;;7.97;3.63;;;;;;;-3.16;76.35;99493.16;5004685;28;105815;-79
2021/12/03 06:52:56;;;;;;;3.92;2.90;;;;;;;-3.07;76.22;99485.56;5004098;28;105878;-71
2021/12/03 06:55:22;;;;;;;7.32;3.65;;;;;;;-2.94;76.33;99495.19;5005303;28;106064;-65
2021/12/03 06:57:47;;;;;;;14.65;3.72;;;;;;;-2.85;76.14;99499.81;5004763;28;106201;-67
2021/12/03 07:00:15;;;;;;;10.32;5.00;;;;;;;-2.76;76.21;99507.00;5004518;28;105790;-70
2021/12/03 07:02:40;;;;;;;8.93;3.55;;;;;;;-2.66;76.31;99504.63;5003893;28;106030;-71
2021/12/03 07:05:08;;;;;;;8.32;3.17;;;;;;;-2.53;75.88;99512.44;5005043;28;106058;-70
2021/12/03 07:07:33;;;;;;;6.55;3.00;;;;;;;-2.39;76.52;99511.53;5004635;28;106264;-72
2021/12/03 07:10:00;;;;;;;6.40;2.97;;;;;;;-2.22;76.16;99507.78;5004071;28;106112;-70
2021/12/03 07:12:26;;;;;;;5.38;2.88;;;;;;;-2.05;75.72;99514.41;5002776;28;106015;-72
2021/12/03 07:14:51;;;;;;;8.00;2.20;;;;;;;-1.91;75.51;99506.47;5004881;28;106247;-72
2021/12/03 07:17:16;;;;;;;7.30;3.08;;;;;;;-1.75;76.04;99510.63;5003624;28;106154;-71
2021/12/03 07:19:42;;;;;;;8.27;2.70;;;;;;;-1.58;75.71;99520.72;5004062;28;105822;-63
2021/12/03 07:22:07;;;;;;;8.68;3.35;;;;;;;-1.43;75.70;99510.94;5003824;28;106011;-71
2021/12/03 07:24:34;;;;;;;5.68;2.28;;;;;;;-1.29;75.48;99511.75;4994886;28;106135;-68
2021/12/03 07:26:59;;;;;;;10.80;4.35;;;;;;;-1.15;75.06;99514.16;4990436;28;106216;-69
2021/12/03 07:29:25;;;;;;;4.10;2.05;;;;;;;-0.97;74.84;99516.38;4990808;28;107305;-70
2021/12/03 07:31:50;;;;;;;6.03;2.97;;;;;;;-0.84;74.80;99514.53;4990424;28;105977;-70
2021/12/03 07:34:16;;;;;;;5.45;1.92;;;;;;;-0.71;74.38;99515.31;4991450;28;106131;-68
2021/12/03 07:36:41;;;;;;;8.73;2.75;;;;;;;-0.56;73.87;99526.41;4993124;28;106341;-66
2021/12/03 07:39:07;;;;;;;4.20;1.60;;;;;;;-0.39;73.38;99517.25;4995582;28;106420;-70
2021/12/03 07:41:35;;;;;;;4.70;1.80;;;;;;;0.34;73.49;99519.53;4990581;28;105919;-73
2021/12/03 07:44:01;;;;;;;4.38;1.55;;;;;;;1.21;72.99;99516.06;4990622;28;106130;-69
2021/12/03 07:46:26;;;;;;;7.38;1.77;;;;;;;1.69;71.75;99520.81;4991122;28;105936;-66
2021/12/03 07:48:51;;;;;;;18.75;6.38;;;;;;;2.12;71.58;99520.72;4990638;28;106294;-71
2021/12/03 07:51:17;;;;;;;5.40;2.00;;;;;;;2.85;71.70;99504.72;4989023;28;106381;-69
2021/12/03 07:53:44;;;;;;;6.15;2.63;;;;;;;3.70;70.08;99508.41;4991462;28;105814;-73
2021/12/03 07:56:09;;;;;;;8.45;1.70;;;;;;;4.35;68.63;99510.22;4990572;28;105894;-75
2021/12/03 07:58:36;;;;;;;5.85;2.53;;;;;;;4.88;66.42;99505.16;4988212;28;106122;-69
2021/12/03 08:01:01;;;;;;;4.45;1.70;;;;;;;5.01;64.45;99516.19;4989826;28;106479;-66
2021/12/03 08:03:27;;;;;;;5.25;2.25;;;;;;;5.25;63.80;99512.94;4990948;28;105924;-74
2021/12/03 08:05:52;;;;;;;8.02;2.53;;;;;;;5.45;62.87;99514.56;4990387;28;106296;-76
2021/12/03 08:08:22;;;;;;;8.85;2.88;;;;;;;5.71;62.48;99515.44;4988092;28;105999;-73
2021/12/03 08:10:49;;;;;;;4.10;1.48;;;;;;;6.29;63.36;99514.91;4987525;28;106954;-72
2021/12/03 08:13:16;;;;;;;5.03;2.40;;;;;;;6.88;63.75;99509.66;4989344;28;106020;-80
2021/12/03 08:15:41;;;;;;;7.00;2.63;;;;;;;7.64;61.97;99510.34;4987892;28;106399;-76
2021/12/03 08:18:06;;;;;;;4.78;2.33;;;;;;;8.28;57.61;99506.81;4990444;28;105836;-73
2021/12/03 08:20:33;;;;;;;12.20;3.97;;;;;;;8.93;57.72;99494.25;4989521;28;106399;-76
2021/12/03 08:22:58;;;;;;;4.97;2.30;;;;;;;9.53;54.99;99510.34;4990342;28;106413;-81
2021/12/03 08:25:24;;;;;;;4.93;2.33;;;;;;;10.27;53.40;99518.41;4990050;28;106276;-73
2021/12/03 08:27:49;;;;;;;10.35;4.63;;;;;;;11.08;53.42;99514.84;4989233;28;106050;-77
2021/12/03 08:30:15;;;;;;;5.75;2.05;;;;;;;12.07;52.06;99510.53;4988688;28;105908;-72
2021/12/03 08:32:42;;;;;;;6.65;2.17;;;;;;;12.94;51.30;99513.53;4988810;28;105974;-77
2021/12/03 08:35:08;;;;;;;4.25;1.80;;;;;;;13.49;45.41;99509.91;4988285;28;106195;-70
2021/12/03 08:37:33;;;;;;;4.93;1.70;;;;;;;13.66;42.99;99504.97;4988762;28;106023;-71
2021/12/03 08:39:58;;;;;;;10.57;1.90;;;;;;;14.15;43.58;99517.03;4989693;28;106057;-78
2021/12/03 08:42:24;;;;;;;3.50;1.83;;;;;;;14.71;40.38;99515.63;4990455;28;105756;-68
2021/12/03 08:44:50;;;;;;;7.45;1.95;;;;;;;15.13;38.17;99525.91;4990182;28;105894;-67
2021/12/03 08:47:16;;;;;;;5.40;2.10;;;;;;;15.52;38.45;99507.84;4989940;28;105962;-72
2021/12/03 08:49:52;;;;;;;4.13;2.05;;;;;;;16.32;35.93;99517.03;4989086;28;106355;-69
2021/12/03 08:54:52;;;;;;;6.10;2.33;;;;;;;17.20;36.59;99539.06;4989370;28;106181;-69
2021/12/03 08:57:21;;;;;;;6.00;2.28;;;;;;;17.92;32.70;99534.66;4988741;28;105929;-65
2021/12/03 08:59:47;;;;;;;5.95;3.03;;;;;;;17.83;30.79;99536.81;4988660;28;105901;-70
2021/12/03 09:02:12;;;;;;;7.55;2.40;;;;;;;18.40;30.47;99541.63;4989348;28;106060;-70
2021/12/03 09:04:38;;;;;;;12.45;5.82;;;;;;;18.92;29.90;99546.19;4989179;28;106157;-70
2021/12/03 09:07:05;;;;;;;7.57;3.10;;;;;;;19.38;27.80;99539.94;4989145;28;105718;-72
2021/12/03 09:09:31;;;;;;;7.60;2.63;;;;;;;19.63;26.57;99528.75;4988893;28;106019;-70
2021/12/03 09:11:56;;;;;;;5.10;2.30;;;;;;;19.67;25.07;99547.97;4988690;28;106201;-67
2021/12/03 09:14:31;;;;;;;8.07;2.75;;;;;;;20.03;26.17;99543.97;4987266;28;105976;-71
2021/12/03 09:17:06;;;;;;;14.95;7.57;;;;;;;20.52;24.21;99551.38;4986517;28;106309;-67
2021/12/03 09:19:36;;;;;;;5.57;2.58;;;;;;;20.36;23.50;99544.16;4985957;28;106784;-70
2021/12/03 09:22:02;;;;;;;9.32;3.63;;;;;;;20.80;23.17;99546.84;4985452;28;106348;-69
2021/12/03 09:24:34;;;;;;;9.45;3.60;;;;;;;21.53;23.23;99540.25;4986176;28;106287;-66
2021/12/03 09:26:59;;;;;;;6.05;3.72;;;;;;;22.33;21.54;99545.66;4984825;28;107688;-69
2021/12/03 09:29:30;;;;;;;6.57;3.67;;;;;;;22.90;22.13;99551.34;4987070;28;106035;-71
2021/12/03 09:31:57;;;;;;;15.88;14.88;;;;;;;24.06;20.49;99544.59;4989700;28;106295;-70
2021/12/03 09:34:24;;;;;;;9.30;3.70;;;;;;;23.28;19.38;99539.22;4988248;28;106272;-71
2021/12/03 09:36:50;;;;;;;4.05;2.58;;;;;;;22.75;18.67;99541.25;4988635;28;106300;-68
2021/12/03 09:39:19;;;;;;;3.92;2.58;;;;;;;22.87;18.72;99539.13;4988362;28;106111;-70
2021/12/03 09:41:44;;;;;;;7.70;3.05;;;;;;;23.18;18.98;99539.19;4977348;28;106440;-66
2021/12/03 09:44:10;;;;;;;7.03;3.67;;;;;;;23.62;18.09;99518.81;4969021;28;106263;-69
2021/12/03 09:46:36;;;;;;;10.32;6.78;;;;;;;24.00;18.30;99524.75;4977199;28;106189;-70
2021/12/03 09:51:34;;;;;;;4.13;2.55;;;;;;;23.62;17.34;99513.38;4987773;28;106635;-64
2021/12/03 09:56:44;;;;;;;8.18;3.30;;;;;;;23.96;17.45;99505.47;4984009;28;105992;-64
2021/12/03 10:15:23;;;;;;;8.63;2.33;;;;;;;24.83;16.65;99506.22;4944804;28;106390;-64
2021/12/03 10:18:08;;;;;;;5.43;1.73;;;;;;;25.70;15.49;99496.56;4947566;28;106967;-67
2021/12/03 10:26:19;;;;;;;4.18;1.40;;;;;;;25.20;14.64;99525.88;4946950;28;106801;-63
2021/12/03 10:38:51;;;;;;;6.05;2.08;;;;;;;25.77;14.63;99513.41;4943558;28;106639;-65
2021/12/03 10:46:38;;;;;;;4.10;1.75;;;;;;;26.09;14.23;99517.44;4944900;28;106025;-71
2021/12/03 10:52:07;;;;;;;7.65;4.50;;;;;;;26.40;14.15;99527.22;4944557;28;106141;-69
2021/12/03 11:19:52;;;;;;;7.10;3.17;;;;;;;28.08;12.75;99538.63;4988372;28;106689;-75
2021/12/03 11:42:58;;;;;;;4.88;2.10;;;;;;;31.23;11.23;99526.00;4985371;28;106848;-76
2021/12/03 14:10:31;;;;;;;24.95;10.02;;;;;;;14.83;22.58;99588.19;4987650;28;106317;-66
2021/12/03 14:17:11;;;;;;;33.00;12.80;;;;;;;13.51;23.62;99583.59;4986928;28;106075;-67
2021/12/03 14:19:25;;;;;;;40.00;15.80;;;;;;;12.64;24.99;99587.84;4987073;28;105993;-66
2021/12/03 14:55:04;;;;;;;30.25;10.73;;;;;;;2.13;39.46;99623.09;5042648;27;105894;-72
2021/12/03 15:00:29;;;;;;;35.70;12.73;;;;;;;1.75;40.77;99626.28;5044713;27;106252;-70
2021/12/03 15:22:02;;;;;;;11.50;4.53;;;;;;;0.50;43.76;99634.47;5065071;27;105965;-72
2021/12/03 15:32:09;;;;;;;19.73;6.28;;;;;;;0.12;44.55;99640.88;5064534;27;106193;-69
2021/12/03 15:34:45;;;;;;;29.67;9.75;;;;;;;0.02;45.42;99639.94;5064071;27;106002;-69
2021/12/03 16:09:06;;;;;;;15.43;4.80;;;;;;;-0.97;48.08;99657.56;5047975;27;105884;-69
2021/12/03 16:11:39;;;;;;;14.65;5.55;;;;;;;-1.05;48.52;99655.53;5050940;27;106075;-67
2021/12/03 16:14:26;;;;;;;12.02;5.25;;;;;;;-1.11;47.88;99661.19;5049800;27;105834;-68
2021/12/03 16:19:22;;;;;;;13.98;4.57;;;;;;;-1.25;49.03;99659.53;5051252;27;106091;-68
2021/12/03 16:27:52;;;;;;;9.40;3.83;;;;;;;-1.31;50.02;99659.97;5011086;27;106324;-68
2021/12/03 16:43:54;;;;;;;10.02;4.63;;;;;;;-1.55;51.14;99668.56;5047686;27;106374;-69
2021/12/03 16:51:40;;;;;;;8.02;3.97;;;;;;;-1.66;51.15;99677.13;5050854;27;105942;-70
2021/12/03 16:54:08;;;;;;;11.05;4.72;;;;;;;-1.72;51.61;99667.94;5050145;27;105995;-69
2021/12/03 16:56:35;;;;;;;9.88;4.70;;;;;;;-1.76;51.75;99665.66;5030875;27;108844;-69
2021/12/03 16:59:02;;;;;;;9.07;4.32;;;;;;;-1.79;52.03;99665.84;5049995;27;106058;-69
2021/12/03 17:09:54;;;;;;;6.88;3.10;;;;;;;-1.88;53.70;99675.16;5051120;27;106527;-68
2021/12/03 17:12:28;;;;;;;7.88;4.90;;;;;;;-1.88;53.74;99662.09;5047778;27;106138;-70
2021/12/03 18:00:14;;;;;;;20.35;7.85;;;;;;;-0.84;55.53;99662.78;5046980;27;106108;-70
2021/12/03 18:02:45;;;;;;;15.52;5.72;;;;;;;-0.81;55.98;99668.63;5049695;27;105851;-68
2021/12/03 18:11:19;;;;;;;8.25;4.45;;;;;;;-0.71;55.52;99664.41;5046624;27;105811;-68
2021/12/03 18:51:25;;;;;;;5.97;2.80;;;;;;;-0.56;56.67;99636.28;5048888;27;106379;-70
2021/12/03 18:59:05;;;;;;;5.95;2.88;;;;;;;-0.62;56.45;99620.22;5048630;27;106201;-67
2021/12/03 19:01:31;;;;;;;;;;;;;;;-0.70;56.58;99621.63;5048882;27;105925;-68
2021/12/03 19:06:51;;;;;;;13.38;6.53;;;;;;;-0.82;56.94;99625.13;5049370;27;105944;-69
2021/12/03 19:09:23;;;;;;;7.55;4.60;;;;;;;-0.86;56.68;99623.66;5048307;27;105833;-69
2021/12/03 19:14:19;;;;;;;9.32;4.47;;;;;;;-0.78;57.42;99626.56;5047557;27;105941;-70
2021/12/03 19:16:44;;;;;;;54.03;39.20;;;;;;;-0.70;57.48;99624.22;5048967;27;105768;-71
2021/12/03 19:19:13;;;;;;;6.30;3.35;;;;;;;-0.63;57.49;99629.00;5047601;27;106552;-71
2021/12/03 19:21:39;;;;;;;7.15;4.18;;;;;;;-0.61;56.96;99632.34;5047377;27;106061;-71
2021/12/03 19:24:07;;;;;;;7.97;4.13;;;;;;;-0.58;57.13;99637.34;5047355;27;106000;-68
2021/12/03 19:26:34;;;;;;;10.15;4.95;;;;;;;-0.57;57.47;99639.84;5048302;27;106384;-68
2021/12/03 19:29:01;;;;;;;11.65;5.32;;;;;;;-0.56;57.64;99635.44;5047745;27;106168;-68
2021/12/03 19:31:28;;;;;;;16.08;8.23;;;;;;;-0.60;57.40;99639.22;5047572;27;106050;-68
2021/12/03 19:33:53;;;;;;;10.02;5.55;;;;;;;-0.64;57.15;99643.00;5047467;27;106075;-68
2021/12/03 19:36:24;;;;;;;12.40;5.93;;;;;;;-0.68;57.36;99635.41;5051941;27;105925;-69
2021/12/03 19:38:50;;;;;;;9.68;5.88;;;;;;;-0.68;57.53;99621.50;5050426;27;106013;-69
2021/12/03 19:41:21;;;;;;;10.48;5.45;;;;;;;-0.69;57.59;99620.63;5051390;27;106227;-70
2021/12/03 19:43:53;;;;;;;12.55;5.53;;;;;;;-0.71;57.03;99625.16;5032573;27;106373;-70
2021/12/03 19:46:24;;;;;;;9.30;4.82;;;;;;;-0.77;57.47;99620.38;5051142;27;106265;-68
2021/12/03 19:49:07;;;;;;;9.30;4.93;;;;;;;-0.82;57.26;99619.88;5050757;27;105870;-69
2021/12/03 19:51:35;;;;;;;11.82;5.88;;;;;;;-0.88;57.24;99621.13;5050904;27;106075;-70
2021/12/03 19:54:01;;;;;;;8.38;4.88;;;;;;;-0.89;57.98;99616.03;5051343;27;105951;-69
2021/12/03 19:56:30;;;;;;;9.30;3.83;;;;;;;-0.86;58.41;99610.59;5051869;27;106318;-69
2021/12/03 19:58:58;;;;;;;11.75;4.88;;;;;;;-0.88;57.64;99605.44;5050992;27;106127;-70
2021/12/03 20:01:24;;;;;;;9.20;4.30;;;;;;;-0.87;57.97;99607.13;5050664;27;106212;-70
2021/12/03 20:03:51;;;;;;;5.28;3.47;;;;;;;-0.84;58.80;99598.22;5031758;27;106519;-69
2021/12/03 20:06:18;;;;;;;7.10;3.58;;;;;;;-0.79;58.44;99588.28;5033324;27;105911;-68
2021/12/03 20:08:44;;;;;;;5.22;3.03;;;;;;;-0.74;58.73;99582.69;5049632;27;105901;-71
2021/12/03 20:11:10;;;;;;;30.35;15.27;;;;;;;-0.66;58.62;99587.38;5050670;27;106597;-71
2021/12/03 20:13:37;;;;;;;6.90;3.47;;;;;;;-0.56;58.80;99583.97;5050274;27;106514;-68
2021/12/03 20:16:18;;;;;;;8.48;3.30;;;;;;;-0.54;58.05;99589.06;5051663;27;106203;-71
2021/12/03 20:18:55;;;;;;;7.20;4.47;;;;;;;-0.53;58.08;99586.34;5050869;27;106015;-69
2021/12/03 20:21:22;;;;;;;10.80;4.90;;;;;;;-0.49;58.48;99586.09;5049729;27;106833;-68
2021/12/03 20:27:16;;;;;;;10.35;4.85;;;;;;;-0.43;57.94;99567.34;5050374;27;106073;-67
2021/12/03 20:29:33;;;;;;;11.07;4.60;;;;;;;-0.45;58.36;99569.22;5041127;27;106407;-71
2021/12/03 20:32:18;;;;;;;9.38;3.50;;;;;;;-0.46;58.24;99578.88;5050814;27;105977;-65
2021/12/03 20:37:13;;;;;;;6.55;3.72;;;;;;;-0.49;57.86;99562.56;5047601;27;106118;-67
2021/12/03 20:39:41;;;;;;;6.95;4.13;;;;;;;-0.52;58.23;99545.31;5049027;27;105935;-71
2021/12/03 20:42:18;;;;;;;5.63;3.90;;;;;;;-0.53;57.66;99543.66;5031975;27;109080;-67
2021/12/03 20:45:08;;;;;;;7.38;4.68;;;;;;;-0.50;58.74;99553.88;5050613;27;106140;-71
2021/12/03 20:52:50;;;;;;;6.43;3.97;;;;;;;-0.58;57.92;99532.69;5047064;27;105847;-69
2021/12/03 20:59:14;;;;;;;15.30;5.50;;;;;;;-0.65;58.26;99515.81;5051464;27;106214;-71
2021/12/03 21:08:50;;;;;;;7.63;4.30;;;;;;;-0.55;59.39;99517.63;5050702;27;106065;-81
2021/12/03 21:11:32;;;;;;;5.07;2.63;;;;;;;-0.53;58.96;99520.09;5049284;27;106280;-76
2021/12/03 21:14:02;;;;;;;6.30;3.20;;;;;;;-0.47;59.29;99509.16;5049780;27;106720;-72
2021/12/03 21:22:10;;;;;;;5.05;3.00;;;;;;;-0.46;59.48;99500.38;5049355;27;105966;-80
2021/12/03 21:24:38;;;;;;;5.88;3.33;;;;;;;-0.45;59.65;99506.44;5049175;27;107017;-66
2021/12/03 21:27:13;;;;;;;3.25;2.15;;;;;;;-0.47;59.76;99501.31;5049429;27;105978;-62
2021/12/03 21:32:23;;;;;;;6.50;3.65;;;;;;;-0.51;59.31;99492.03;5049653;27;106121;-64
2021/12/03 21:40:49;;;;;;;4.28;3.08;;;;;;;-0.56;59.99;99488.91;5050197;27;106345;-74
2021/12/03 21:43:04;;;;;;;5.35;3.05;;;;;;;-0.58;60.11;99475.13;5048875;27;106185;-70
2021/12/03 21:45:29;;;;;;;7.80;3.78;;;;;;;-0.63;59.59;99472.88;5048981;27;105978;-73
2021/12/03 21:47:54;;;;;;;5.30;2.58;;;;;;;-0.64;60.44;99473.81;5043175;27;106114;-75
2021/12/03 21:50:20;;;;;;;5.07;3.33;;;;;;;-0.62;59.87;99489.41;5049981;27;105991;-76
2021/12/03 21:52:45;;;;;;;5.22;2.97;;;;;;;-0.64;59.65;99478.19;5048978;27;106253;-79
2021/12/03 21:55:11;;;;;;;5.72;3.22;;;;;;;-0.64;60.17;99465.97;5049045;27;105942;-78
2021/12/03 21:57:36;;;;;;;3.50;2.17;;;;;;;-0.66;60.16;99474.88;5048365;27;106046;-76
2021/12/03 22:00:05;;;;;;;5.05;3.22;;;;;;;-0.61;60.24;99464.91;5048958;27;105920;-72
2021/12/03 22:02:30;;;;;;;5.25;2.58;;;;;;;-0.65;60.25;99466.91;5049536;27;105903;-74
2021/12/03 22:04:56;;;;;;;6.78;3.25;;;;;;;-0.64;60.08;99472.97;5049288;27;105866;-77
2021/12/03 22:07:21;;;;;;;5.63;2.92;;;;;;;-0.69;60.10;99468.91;5048261;27;106037;-72
2021/12/03 22:09:46;;;;;;;6.90;3.50;;;;;;;-0.69;60.82;99463.69;5049617;27;105858;-75
2021/12/03 22:12:12;;;;;;;5.90;3.67;;;;;;;-0.67;60.23;99466.19;5049332;27;106345;-81
2021/12/03 22:14:38;;;;;;;6.22;3.88;;;;;;;-0.63;61.16;99462.41;5049719;27;108732;-81
2021/12/03 22:17:04;;;;;;;8.45;3.38;;;;;;;-0.59;60.43;99458.63;5050178;27;106045;-81
2021/12/03 22:19:30;;;;;;;7.03;4.07;;;;;;;-0.53;60.38;99458.13;5050295;27;106018;-82
2021/12/03 22:21:55;;;;;;;7.13;3.45;;;;;;;-0.48;60.74;99460.38;5048323;27;106294;-78
2021/12/03 22:24:21;;;;;;;5.82;3.00;;;;;;;-0.41;60.82;99443.28;5049146;27;105724;-68
2021/12/03 22:26:46;;;;;;;5.97;3.03;;;;;;;-0.38;60.36;99450.91;5048426;27;106178;-77
2021/12/03 22:29:13;;;;;;;4.80;3.67;;;;;;;-0.27;60.70;99441.41;5050163;27;106235;-75
2021/12/03 22:31:39;;;;;;;4.95;2.83;;;;;;;-0.20;60.40;99432.94;5048013;27;106263;-65
2021/12/03 22:34:04;;;;;;;3.95;2.65;;;;;;;-0.16;60.20;99433.53;5048706;27;105898;-73
2021/12/03 22:36:29;;;;;;;4.95;2.75;;;;;;;-0.11;59.91;99431.38;5048327;27;105927;-74
2021/12/03 22:38:55;;;;;;;6.88;3.50;;;;;;;-0.09;59.52;99424.22;5049331;27;106013;-75
2021/12/03 22:41:21;;;;;;;6.70;2.50;;;;;;;-0.07;59.74;99426.72;5049250;27;106128;-75
2021/12/03 22:43:47;;;;;;;6.65;2.75;;;;;;;-0.05;59.92;99419.59;5048566;27;106550;-68
2021/12/03 22:48:43;;;;;;;4.82;2.42;;;;;;;-0.01;59.74;99411.38;5048925;27;106257;-71
2021/12/03 22:53:37;;;;;;;4.75;2.33;;;;;;;-0.02;59.62;99409.69;5048174;27;106452;-80
2021/12/03 22:56:04;;;;;;;5.65;3.50;;;;;;;-0.04;59.22;99405.53;5048701;27;105961;-72
2021/12/03 22:58:30;;;;;;;4.93;3.08;;;;;;;-0.09;59.16;99416.38;5049996;27;105852;-65
2021/12/03 23:00:55;;;;;;;5.60;3.13;;;;;;;-0.06;59.94;99412.69;5049340;27;106081;-73
2021/12/03 23:03:22;;;;;;;6.53;4.07;;;;;;;-0.05;59.63;99394.22;5049682;27;106081;-68
2021/12/03 23:05:48;;;;;;;4.80;3.17;;;;;;;0.00;59.69;99401.75;5048431;27;105844;-67
2021/12/03 23:08:13;;;;;;;4.00;2.35;;;;;;;-0.02;59.46;99393.97;5048934;27;105967;-67
